Current Conditions
Mostly Cloudy
Conditions



Pressure
29.97 (inHG) - 1014.92 (mb)
Visibility

10.0 (mimiles) - 16.1 (km)
   Temperature
46  °F
8°C
43  °F
Dewpoint
87  %
 Humidity
   Wind Speed
10  mph
9  kts
16  km/h
4.5  m/s
   Wind Direction
 130°
South East
   Airport Data
0S9
Location Jefferson County International 5 mi (8.05 km)
Metar :K0S9 221855Z AUTO 13009G15KT 10SM BKN014 BKN065 OVC080 08/06 A2997 RMK AO2
Wed 22nd January 11:55 am
   Raw Metar Info
Raw METAR is the most common format in the world for the transmission of observational weather data. It is highly standardized through the International Civil Aviation Organization (ICAO), which allows it to be understood throughout most of the world.
   API Info
Data Provided by
https://www.checkwx.com/weather/0S9
   © Info
CSS/SVG/PHP scripts were developed by weather34.com for use in the weather34 template © 2015-2020

Guide Info provided by Metar-Wikipedia